Time;durP1;ratioP1;P1;durP2;ratioP2;P2;SDS_P1;SDS_P2;PMS_P1;PMS_P2;Temp;Humidity;BMP_temperature;BMP_pressure;BME280_temperature;BME280_humidity;BME280_pressure;Samples;Min_cycle;Max_cycle;Signal;HPM_P1;HPM_P2
2023/04/01 00:00:53;;;;;;;20.75;3.13;;;;;;;;;;5051357;28;20517;-72
2023/04/01 00:03:20;;;;;;;20.73;3.00;;;;;;;;;;5051706;28;20029;-73
2023/04/01 00:05:47;;;;;;;21.02;3.75;;;;;;;;;;5051492;28;20392;-73
2023/04/01 00:08:13;;;;;;;22.42;4.43;;;;;;;;;;5051603;28;20024;-73
2023/04/01 00:10:40;;;;;;;21.52;3.90;;;;;;;;;;5051681;28;20031;-73
2023/04/01 00:13:06;;;;;;;22.10;4.07;;;;;;;;;;5051589;28;20107;-73
2023/04/01 00:15:33;;;;;;;28.25;4.35;;;;;;;;;;5049964;28;20039;-73
2023/04/01 00:18:00;;;;;;;21.58;3.30;;;;;;;;;;5051684;28;20051;-72
2023/04/01 00:20:27;;;;;;;18.25;3.50;;;;;;;;;;5051323;28;20470;-73
2023/04/01 00:22:53;;;;;;;22.33;4.03;;;;;;;;;;5050323;28;20033;-73
2023/04/01 00:25:20;;;;;;;29.85;4.10;;;;;;;;;;5051998;28;20029;-72
2023/04/01 00:27:46;;;;;;;31.40;4.22;;;;;;;;;;5055096;28;20029;-73
2023/04/01 00:30:13;;;;;;;27.73;4.65;;;;;;;;;;5054557;28;20045;-72
2023/04/01 00:32:39;;;;;;;27.90;4.65;;;;;;;;;;5054834;28;20025;-72
2023/04/01 00:35:06;;;;;;;22.85;3.53;;;;;;;;;;5054893;28;20033;-72
2023/04/01 00:37:34;;;;;;;24.52;4.40;;;;;;;;;;5054735;28;20482;-72
2023/04/01 00:40:01;;;;;;;23.00;4.45;;;;;;;;;;5054641;28;20032;-72
2023/04/01 00:42:28;;;;;;;26.38;5.05;;;;;;;;;;5054611;28;20029;-72
2023/04/01 00:44:55;;;;;;;27.95;4.45;;;;;;;;;;5054401;28;20027;-73
2023/04/01 00:47:22;;;;;;;26.00;4.32;;;;;;;;;;5054540;28;20507;-73
2023/04/01 00:49:50;;;;;;;20.73;3.75;;;;;;;;;;5054450;28;20282;-72
2023/04/01 00:52:22;;;;;;;29.25;5.15;;;;;;;;;;5054645;28;20500;-72
2023/04/01 00:54:50;;;;;;;26.80;4.18;;;;;;;;;;5054390;28;20037;-72
2023/04/01 00:57:22;;;;;;;29.58;4.68;;;;;;;;;;5054190;28;20025;-72
2023/04/01 00:59:52;;;;;;;25.10;4.47;;;;;;;;;;5054121;28;20035;-72
2023/04/01 01:02:19;;;;;;;27.30;4.45;;;;;;;;;;5054527;28;20025;-73
2023/04/01 01:04:45;;;;;;;21.30;4.78;;;;;;;;;;5054521;28;20023;-72
2023/04/01 01:07:27;;;;;;;25.95;4.53;;;;;;;;;;5054528;28;20029;-72
2023/04/01 01:10:02;;;;;;;25.10;4.30;;;;;;;;;;5054006;28;20054;-72
2023/04/01 01:12:35;;;;;;;28.95;4.35;;;;;;;;;;5053914;28;20023;-72
2023/04/01 01:15:07;;;;;;;19.95;4.22;;;;;;;;;;5054022;28;20515;-72
2023/04/01 01:17:41;;;;;;;23.13;4.25;;;;;;;;;;5054052;28;20021;-73
2023/04/01 01:20:16;;;;;;;20.48;3.90;;;;;;;;;;5053945;28;20035;-72
2023/04/01 01:22:48;;;;;;;24.38;4.03;;;;;;;;;;5053924;28;20021;-72
2023/04/01 01:25:34;;;;;;;28.05;4.95;;;;;;;;;;5053858;28;20025;-72
2023/04/01 01:28:13;;;;;;;28.92;5.40;;;;;;;;;;5053828;28;20025;-72
2023/04/01 01:30:49;;;;;;;30.75;4.78;;;;;;;;;;5053665;28;20451;-72
2023/04/01 01:33:18;;;;;;;23.30;3.90;;;;;;;;;;5053702;28;20396;-73
2023/04/01 01:35:47;;;;;;;25.95;4.90;;;;;;;;;;5053687;28;20029;-73
2023/04/01 01:38:15;;;;;;;30.08;4.40;;;;;;;;;;5052963;28;20025;-72
2023/04/01 01:40:44;;;;;;;26.95;4.35;;;;;;;;;;5053503;28;20443;-72
2023/04/01 01:43:13;;;;;;;29.95;4.40;;;;;;;;;;5053470;28;20270;-72
2023/04/01 01:45:42;;;;;;;24.85;4.50;;;;;;;;;;5052167;28;20037;-72
2023/04/01 01:48:09;;;;;;;22.73;3.90;;;;;;;;;;5053529;28;20020;-72
2023/04/01 01:50:37;;;;;;;30.98;5.07;;;;;;;;;;5053480;28;20028;-72
2023/04/01 01:53:08;;;;;;;23.70;3.80;;;;;;;;;;5053243;28;20026;-73
2023/04/01 01:55:34;;;;;;;;;;;;;;;;;;5053390;28;20036;-72
2023/04/01 01:58:27;;;;;;;28.63;4.25;;;;;;;;;;5053212;28;20280;-72
2023/04/01 02:00:55;;;;;;;24.73;3.45;;;;;;;;;;5051981;28;20040;-73
2023/04/01 02:03:23;;;;;;;25.05;4.53;;;;;;;;;;5053113;28;20035;-73
2023/04/01 02:05:51;;;;;;;22.45;4.28;;;;;;;;;;5053240;28;20021;-72
2023/04/01 02:08:20;;;;;;;27.30;3.88;;;;;;;;;;5053044;28;20025;-73
2023/04/01 02:10:52;;;;;;;28.52;4.28;;;;;;;;;;5052786;28;20021;-73
2023/04/01 02:13:39;;;;;;;22.27;4.10;;;;;;;;;;5053289;28;20020;-72
2023/04/01 02:16:07;;;;;;;27.17;4.70;;;;;;;;;;5052796;28;20036;-72
2023/04/01 02:18:35;;;;;;;20.80;3.53;;;;;;;;;;5052861;28;20033;-72
2023/04/01 02:21:04;;;;;;;26.25;4.10;;;;;;;;;;5052821;28;20033;-73
2023/04/01 02:23:32;;;;;;;24.60;4.30;;;;;;;;;;5052971;28;20027;-73
2023/04/01 02:25:58;;;;;;;22.80;3.70;;;;;;;;;;5052471;28;20025;-72
2023/04/01 02:28:25;;;;;;;28.98;4.47;;;;;;;;;;5052690;28;20400;-72
2023/04/01 02:30:52;;;;;;;23.33;3.55;;;;;;;;;;5052443;28;20044;-72
2023/04/01 02:33:19;;;;;;;22.83;4.15;;;;;;;;;;5052796;28;20036;-72
2023/04/01 02:35:45;;;;;;;25.52;4.18;;;;;;;;;;5052385;28;20416;-72
2023/04/01 02:38:12;;;;;;;19.67;3.40;;;;;;;;;;5052791;28;20029;-72
2023/04/01 02:40:42;;;;;;;20.75;3.75;;;;;;;;;;5052161;28;20533;-72
2023/04/01 02:43:08;;;;;;;22.27;4.13;;;;;;;;;;5052503;28;20024;-72
2023/04/01 02:45:35;;;;;;;24.95;4.13;;;;;;;;;;5052618;28;20029;-73
2023/04/01 02:48:01;;;;;;;26.55;4.25;;;;;;;;;;5052155;28;20602;-72
2023/04/01 02:50:27;;;;;;;23.17;4.25;;;;;;;;;;5052306;28;20401;-72
2023/04/01 02:52:54;;;;;;;22.42;4.00;;;;;;;;;;5052434;28;20025;-72
2023/04/01 02:55:20;;;;;;;24.63;4.55;;;;;;;;;;5051919;28;20037;-73
2023/04/01 02:57:46;;;;;;;25.83;4.03;;;;;;;;;;5052211;28;20031;-73
2023/04/01 03:00:13;;;;;;;23.90;3.80;;;;;;;;;;5052108;28;20029;-72
2023/04/01 03:02:39;;;;;;;23.85;4.55;;;;;;;;;;5052381;28;20017;-72
2023/04/01 03:05:06;;;;;;;20.25;3.75;;;;;;;;;;5052141;28;20021;-72
2023/04/01 03:07:33;;;;;;;25.65;4.47;;;;;;;;;;5052119;28;20023;-72
2023/04/01 03:09:59;;;;;;;29.77;4.68;;;;;;;;;;5051834;28;20381;-72
2023/04/01 03:12:26;;;;;;;27.92;4.03;;;;;;;;;;5051951;28;20396;-73
2023/04/01 03:14:52;;;;;;;24.17;4.50;;;;;;;;;;5052247;28;20078;-72
2023/04/01 03:17:18;;;;;;;28.67;4.65;;;;;;;;;;5051834;28;20025;-73
2023/04/01 03:19:45;;;;;;;26.00;4.10;;;;;;;;;;5052171;28;20031;-72
2023/04/01 03:22:11;;;;;;;20.73;3.53;;;;;;;;;;5051961;28;20025;-72
2023/04/01 03:24:38;;;;;;;29.52;4.53;;;;;;;;;;5051689;28;20025;-73
2023/04/01 03:27:04;;;;;;;26.15;3.97;;;;;;;;;;5052145;28;20040;-72
2023/04/01 03:29:30;;;;;;;26.98;3.97;;;;;;;;;;5051707;28;20029;-72
2023/04/01 03:31:57;;;;;;;25.33;4.38;;;;;;;;;;5051916;28;20025;-72
2023/04/01 03:34:24;;;;;;;25.08;4.28;;;;;;;;;;5051903;28;20031;-72
2023/04/01 03:36:51;;;;;;;24.70;3.85;;;;;;;;;;5051687;28;20025;-72
2023/04/01 03:39:18;;;;;;;27.42;3.47;;;;;;;;;;5051970;28;20043;-72
2023/04/01 03:41:45;;;;;;;28.15;4.13;;;;;;;;;;5051626;28;20029;-72
2023/04/01 03:44:12;;;;;;;26.23;3.67;;;;;;;;;;5051823;28;20388;-71
2023/04/01 03:46:38;;;;;;;20.75;3.70;;;;;;;;;;5051818;28;20031;-72
2023/04/01 03:49:11;;;;;;;21.25;3.35;;;;;;;;;;5051610;28;20025;-72
2023/04/01 03:51:38;;;;;;;16.85;3.00;;;;;;;;;;5051380;28;20478;-72
2023/04/01 03:54:05;;;;;;;15.35;3.10;;;;;;;;;;5051619;28;20412;-73
2023/04/01 03:56:32;;;;;;;15.20;2.88;;;;;;;;;;5051560;28;20026;-73
2023/04/01 03:58:58;;;;;;;24.08;3.53;;;;;;;;;;5051368;28;20039;-72
2023/04/01 04:01:24;;;;;;;15.30;2.75;;;;;;;;;;5054166;28;20044;-72
2023/04/01 04:03:52;;;;;;;16.52;2.67;;;;;;;;;;5055422;28;20017;-73
2023/04/01 04:06:19;;;;;;;17.17;3.55;;;;;;;;;;5055084;28;20021;-72
2023/04/01 04:08:45;;;;;;;14.35;2.67;;;;;;;;;;5055491;28;20021;-72
2023/04/01 04:11:11;;;;;;;18.23;2.92;;;;;;;;;;5055302;28;20070;-72
2023/04/01 04:13:38;;;;;;;22.30;3.15;;;;;;;;;;5055461;28;20035;-73
2023/04/01 04:16:04;;;;;;;20.35;2.67;;;;;;;;;;5055267;28;20036;-73
2023/04/01 04:18:30;;;;;;;18.38;2.92;;;;;;;;;;5055055;28;20023;-73
2023/04/01 04:20:57;;;;;;;11.75;2.35;;;;;;;;;;5055183;28;20039;-72
2023/04/01 04:23:24;;;;;;;17.77;2.38;;;;;;;;;;5055187;28;20020;-72
2023/04/01 04:26:17;;;;;;;17.05;2.40;;;;;;;;;;5054834;28;20025;-73
2023/04/01 04:28:43;;;;;;;9.55;2.30;;;;;;;;;;5053630;28;20039;-73
2023/04/01 04:31:09;;;;;;;16.80;2.50;;;;;;;;;;5054905;28;20025;-72
2023/04/01 04:33:36;;;;;;;15.57;2.60;;;;;;;;;;5053663;28;20393;-72
2023/04/01 04:36:03;;;;;;;20.05;3.63;;;;;;;;;;5054670;28;20481;-73
2023/04/01 04:38:30;;;;;;;11.48;2.10;;;;;;;;;;5054647;28;20503;-72
2023/04/01 04:40:56;;;;;;;21.88;2.85;;;;;;;;;;5054633;28;20494;-72
2023/04/01 04:43:23;;;;;;;20.15;3.42;;;;;;;;;;5054680;28;20039;-72
2023/04/01 04:45:49;;;;;;;14.73;2.75;;;;;;;;;;5054804;28;20031;-72
2023/04/01 04:48:18;;;;;;;20.55;3.35;;;;;;;;;;5054573;28;20037;-73
2023/04/01 04:50:53;;;;;;;23.00;3.15;;;;;;;;;;5054475;28;20025;-73
2023/04/01 04:53:20;;;;;;;21.17;3.35;;;;;;;;;;5054624;28;20025;-72
2023/04/01 04:55:47;;;;;;;13.63;2.83;;;;;;;;;;5053256;28;20044;-72
2023/04/01 04:58:13;;;;;;;21.35;3.05;;;;;;;;;;5054442;28;20515;-73
2023/04/01 05:00:40;;;;;;;14.82;2.75;;;;;;;;;;5054483;28;20025;-73
2023/04/01 05:03:06;;;;;;;20.35;3.45;;;;;;;;;;5054216;28;20025;-72
2023/04/01 05:05:32;;;;;;;23.73;3.17;;;;;;;;;;5054237;28;20032;-72
2023/04/01 05:07:59;;;;;;;14.30;2.75;;;;;;;;;;5054474;28;20024;-72
2023/04/01 05:10:25;;;;;;;21.02;2.90;;;;;;;;;;5054036;28;20028;-73
2023/04/01 05:12:51;;;;;;;26.88;3.65;;;;;;;;;;5054145;28;20419;-72
2023/04/01 05:15:18;;;;;;;17.98;3.00;;;;;;;;;;5053959;28;20037;-72
2023/04/01 05:17:44;;;;;;;17.27;3.45;;;;;;;;;;5053910;28;20021;-72
2023/04/01 05:20:12;;;;;;;20.40;3.15;;;;;;;;;;5053937;28;20428;-73
2023/04/01 05:22:39;;;;;;;17.70;3.25;;;;;;;;;;5053986;28;20445;-73
2023/04/01 05:25:05;;;;;;;17.00;2.60;;;;;;;;;;5054167;28;20035;-73
2023/04/01 05:27:32;;;;;;;19.77;2.72;;;;;;;;;;5053882;28;20025;-72
2023/04/01 05:29:58;;;;;;;17.92;2.88;;;;;;;;;;5053626;28;20057;-72
2023/04/01 05:32:25;;;;;;;18.00;3.45;;;;;;;;;;5053878;28;20485;-72
2023/04/01 05:34:52;;;;;;;21.08;3.13;;;;;;;;;;5053750;28;20039;-73
2023/04/01 05:37:18;;;;;;;20.98;3.28;;;;;;;;;;5053684;28;20493;-73
2023/04/01 05:39:44;;;;;;;19.63;3.33;;;;;;;;;;5053530;28;20023;-72
2023/04/01 05:42:11;;;;;;;16.88;3.28;;;;;;;;;;5053608;28;20025;-72
2023/04/01 05:44:37;;;;;;;14.10;3.45;;;;;;;;;;5053487;28;20025;-72
2023/04/01 05:47:04;;;;;;;17.55;2.88;;;;;;;;;;5053734;28;20023;-72
2023/04/01 05:49:31;;;;;;;13.45;2.70;;;;;;;;;;5053226;28;20025;-72
2023/04/01 05:51:57;;;;;;;7.57;1.60;;;;;;;;;;5053338;28;20473;-72
2023/04/01 05:54:24;;;;;;;8.50;1.77;;;;;;;;;;5053452;28;20102;-72
2023/04/01 05:56:50;;;;;;;6.18;1.38;;;;;;;;;;5053562;28;20031;-72
2023/04/01 05:59:16;;;;;;;8.25;2.25;;;;;;;;;;5053137;28;20025;-72
2023/04/01 06:01:43;;;;;;;7.40;1.77;;;;;;;;;;5053106;28;20435;-72
2023/04/01 06:04:16;;;;;;;7.75;1.50;;;;;;;;;;5053229;28;20021;-72
2023/04/01 06:06:42;;;;;;;6.00;1.73;;;;;;;;;;5053419;28;20024;-73
2023/04/01 06:09:16;;;;;;;13.10;1.98;;;;;;;;;;5052902;28;20036;-73
2023/04/01 06:12:01;;;;;;;6.93;1.90;;;;;;;;;;5053009;28;20017;-73
2023/04/01 06:14:30;;;;;;;8.30;2.05;;;;;;;;;;5053081;28;20031;-72
2023/04/01 06:17:06;;;;;;;11.68;2.13;;;;;;;;;;5052541;28;20035;-74
2023/04/01 06:19:34;;;;;;;14.00;2.33;;;;;;;;;;5052948;28;20028;-72
2023/04/01 06:22:04;;;;;;;13.63;2.10;;;;;;;;;;5052829;28;20055;-72
2023/04/01 06:24:42;;;;;;;15.30;2.80;;;;;;;;;;5052259;28;20031;-72
2023/04/01 06:27:08;;;;;;;16.50;3.40;;;;;;;;;;5052639;28;20025;-73
2023/04/01 06:29:41;;;;;;;15.30;3.67;;;;;;;;;;5052598;28;20051;-73
2023/04/01 06:32:07;;;;;;;16.75;3.50;;;;;;;;;;5052466;28;20033;-72
2023/04/01 06:34:33;;;;;;;20.95;2.97;;;;;;;;;;5052457;28;20408;-73
2023/04/01 06:37:03;;;;;;;26.17;5.57;;;;;;;;;;5052540;28;20089;-73
2023/04/01 06:39:48;;;;;;;22.38;6.53;;;;;;;;;;5052721;28;20051;-72
2023/04/01 06:42:14;;;;;;;26.13;5.53;;;;;;;;;;5052698;28;20013;-73
2023/04/01 06:44:50;;;;;;;22.73;6.60;;;;;;;;;;5052421;28;20062;-73
2023/04/01 06:47:19;;;;;;;22.50;4.80;;;;;;;;;;5052082;28;20041;-72
2023/04/01 06:49:52;;;;;;;19.27;3.35;;;;;;;;;;5050949;28;20036;-72
2023/04/01 06:52:37;;;;;;;21.20;4.57;;;;;;;;;;5051078;28;20067;-73
2023/04/01 06:55:22;;;;;;;29.48;9.77;;;;;;;;;;5050888;28;20037;-72
2023/04/01 06:57:50;;;;;;;28.77;7.25;;;;;;;;;;5052497;28;20021;-73
2023/04/01 07:00:29;;;;;;;48.15;19.25;;;;;;;;;;5052159;28;20031;-72
2023/04/01 07:03:14;;;;;;;37.30;12.35;;;;;;;;;;5052089;28;20019;-72
2023/04/01 07:05:40;;;;;;;25.38;6.97;;;;;;;;;;5052213;28;20043;-73
2023/04/01 07:08:11;;;;;;;19.63;4.00;;;;;;;;;;5052237;28;20043;-73
2023/04/01 07:10:57;;;;;;;18.83;3.65;;;;;;;;;;5052216;28;20362;-73
2023/04/01 07:13:40;;;;;;;19.75;2.95;;;;;;;;;;5052079;28;20017;-72
2023/04/01 07:16:11;;;;;;;15.18;3.17;;;;;;;;;;5050465;28;20040;-72
2023/04/01 07:18:42;;;;;;;19.90;4.78;;;;;;;;;;5051852;28;20025;-73
2023/04/01 07:21:08;;;;;;;;;;;;;;;;;;5052651;28;20025;-72
2023/04/01 07:23:39;;;;;;;25.27;6.03;;;;;;;;;;5051945;28;19911;-73
2023/04/01 07:26:06;;;;;;;;;;;;;;;;;;5052390;28;20021;-72
2023/04/01 07:28:35;;;;;;;26.55;9.90;;;;;;;;;;5051711;28;19911;-72
2023/04/01 07:31:10;;;;;;;19.95;6.10;;;;;;;;;;5051553;28;20042;-73
2023/04/01 07:33:41;;;;;;;21.85;6.80;;;;;;;;;;5051787;28;20439;-72
2023/04/01 07:36:14;;;;;;;23.75;6.45;;;;;;;;;;5053917;28;20382;-73
2023/04/01 07:38:52;;;;;;;18.17;3.95;;;;;;;;;;5055856;28;20432;-73
2023/04/01 07:41:37;;;;;;;22.85;3.90;;;;;;;;;;5056157;28;20024;-73
2023/04/01 07:44:22;;;;;;;18.83;4.03;;;;;;;;;;5055738;28;20024;-72
2023/04/01 07:46:56;;;;;;;22.13;3.80;;;;;;;;;;5055813;28;20055;-72
2023/04/01 07:49:28;;;;;;;23.80;4.18;;;;;;;;;;5055382;28;20025;-72
2023/04/01 07:52:02;;;;;;;21.02;3.80;;;;;;;;;;5055506;28;20033;-72
2023/04/01 07:54:39;;;;;;;19.55;3.28;;;;;;;;;;5055801;28;20024;-72
2023/04/01 07:57:05;;;;;;;16.23;3.10;;;;;;;;;;5055613;28;20042;-72
2023/04/01 07:59:58;;;;;;;19.58;3.20;;;;;;;;;;5055341;28;20022;-72
2023/04/01 08:02:27;;;;;;;23.63;4.20;;;;;;;;;;5054484;28;20033;-72
2023/04/01 08:05:00;;;;;;;17.75;3.67;;;;;;;;;;5055646;28;20025;-72
2023/04/01 08:07:41;;;;;;;15.75;3.55;;;;;;;;;;5055667;28;20021;-73
2023/04/01 08:10:19;;;;;;;18.98;3.22;;;;;;;;;;5055396;28;20025;-72
2023/04/01 08:12:57;;;;;;;18.83;4.63;;;;;;;;;;5055313;28;20033;-72
2023/04/01 08:15:38;;;;;;;15.40;3.92;;;;;;;;;;5055170;28;20039;-70
2023/04/01 08:18:08;;;;;;;15.30;3.45;;;;;;;;;;5055285;28;20363;-72
2023/04/01 08:20:44;;;;;;;21.25;3.63;;;;;;;;;;5055297;28;20027;-72
2023/04/01 08:23:10;;;;;;;18.80;4.63;;;;;;;;;;5055148;28;20024;-72
2023/04/01 08:25:40;;;;;;;17.77;3.90;;;;;;;;;;5053684;28;20427;-72
2023/04/01 08:28:06;;;;;;;17.95;6.32;;;;;;;;;;5054908;28;20017;-73
2023/04/01 08:30:52;;;;;;;22.55;5.65;;;;;;;;;;5053919;28;20394;-73
2023/04/01 08:33:21;;;;;;;11.98;3.90;;;;;;;;;;5053632;28;20025;-73
2023/04/01 08:35:55;;;;;;;16.33;4.15;;;;;;;;;;5053468;28;20043;-73
2023/04/01 08:38:27;;;;;;;15.25;5.10;;;;;;;;;;5053723;28;20039;-73
2023/04/01 08:40:56;;;;;;;15.73;4.32;;;;;;;;;;5053760;28;20058;-72
2023/04/01 08:43:25;;;;;;;14.73;3.15;;;;;;;;;;5053559;28;20033;-72
2023/04/01 08:46:01;;;;;;;10.35;3.45;;;;;;;;;;5053014;28;20021;-73
2023/04/01 08:48:46;;;;;;;10.48;2.90;;;;;;;;;;5053344;28;20037;-73
2023/04/01 08:51:19;;;;;;;13.02;2.85;;;;;;;;;;5053570;28;20021;-73
2023/04/01 08:54:01;;;;;;;9.18;2.40;;;;;;;;;;5053285;28;20031;-72
2023/04/01 08:56:30;;;;;;;8.75;2.53;;;;;;;;;;5053017;28;20518;-73
2023/04/01 08:59:35;;;;;;;9.43;2.92;;;;;;;;;;5053404;28;20078;-73
2023/04/01 09:02:10;;;;;;;14.00;2.95;;;;;;;;;;5031219;28;20029;-73
2023/04/01 09:04:36;;;;;;;12.00;3.42;;;;;;;;;;5031135;28;20025;-73
2023/04/01 09:07:21;;;;;;;8.00;2.65;;;;;;;;;;5031525;28;20044;-73
2023/04/01 09:09:54;;;;;;;14.02;3.67;;;;;;;;;;5031062;28;20083;-73
2023/04/01 09:12:22;;;;;;;9.73;2.35;;;;;;;;;;5030784;28;20034;-73
2023/04/01 09:15:04;;;;;;;9.77;2.42;;;;;;;;;;5030891;28;20059;-73
2023/04/01 09:17:30;;;;;;;10.73;2.80;;;;;;;;;;5031083;28;20502;-72
2023/04/01 09:20:15;;;;;;;11.02;2.67;;;;;;;;;;5030766;28;20662;-73
2023/04/01 09:22:46;;;;;;;10.52;2.38;;;;;;;;;;5030862;28;20039;-73
2023/04/01 09:25:20;;;;;;;11.98;2.55;;;;;;;;;;5030540;28;20029;-73
2023/04/01 09:28:05;;;;;;;12.77;2.80;;;;;;;;;;5030768;28;20102;-73
2023/04/01 09:30:46;;;;;;;10.73;2.65;;;;;;;;;;4990240;28;1183624;-72
2023/04/01 09:33:31;;;;;;;11.35;2.65;;;;;;;;;;5046672;28;20047;-73
2023/04/01 09:36:13;;;;;;;9.90;2.33;;;;;;;;;;5053531;28;20043;-72
2023/04/01 09:38:56;;;;;;;12.27;2.78;;;;;;;;;;5053775;28;20023;-73
2023/04/01 09:41:28;;;;;;;10.65;3.35;;;;;;;;;;5053745;28;20020;-72
2023/04/01 09:43:54;;;;;;;14.35;4.22;;;;;;;;;;5053764;28;20025;-73
2023/04/01 09:46:27;;;;;;;11.32;3.25;;;;;;;;;;5053733;28;20025;-72
2023/04/01 09:48:59;;;;;;;11.32;2.70;;;;;;;;;;5053653;28;20010;-73
2023/04/01 09:51:44;;;;;;;13.02;2.88;;;;;;;;;;5053690;28;20040;-73
2023/04/01 09:54:11;;;;;;;10.70;2.92;;;;;;;;;;5053206;28;20021;-73
2023/04/01 09:56:37;;;;;;;12.77;2.92;;;;;;;;;;5053234;28;20512;-73
2023/04/01 09:59:06;;;;;;;14.30;3.40;;;;;;;;;;5052605;28;20017;-73
2023/04/01 10:01:33;;;;;;;10.07;2.50;;;;;;;;;;5053390;28;20020;-73
2023/04/01 10:04:18;;;;;;;15.05;3.50;;;;;;;;;;5053272;28;20025;-72
2023/04/01 10:07:03;;;;;;;15.88;3.70;;;;;;;;;;5053162;28;20025;-71
2023/04/01 10:09:32;;;;;;;13.88;3.95;;;;;;;;;;5052896;28;20029;-73
2023/04/01 10:12:16;;;;;;;19.02;3.42;;;;;;;;;;5053417;28;20029;-72
2023/04/01 10:14:45;;;;;;;13.23;3.25;;;;;;;;;;5053133;28;20032;-72
2023/04/01 10:17:30;;;;;;;12.35;2.53;;;;;;;;;;5052757;28;20082;-72
2023/04/01 10:19:59;;;;;;;10.88;2.85;;;;;;;;;;5052969;28;20024;-73
2023/04/01 10:22:35;;;;;;;10.27;2.75;;;;;;;;;;5052924;28;20028;-73
2023/04/01 10:25:20;;;;;;;14.95;3.03;;;;;;;;;;5051582;28;20029;-72
2023/04/01 10:27:58;;;;;;;10.55;2.70;;;;;;;;;;5052647;28;20017;-72
2023/04/01 10:30:25;;;;;;;10.25;3.05;;;;;;;;;;5052655;28;20500;-73
2023/04/01 10:32:57;;;;;;;12.40;2.83;;;;;;;;;;5052745;28;20043;-73
2023/04/01 10:35:37;;;;;;;10.18;2.70;;;;;;;;;;5052962;28;20029;-73
2023/04/01 10:38:03;;;;;;;9.30;2.80;;;;;;;;;;5052417;28;20043;-72
2023/04/01 10:40:53;;;;;;;8.18;2.78;;;;;;;;;;5052424;28;20094;-72
2023/04/01 10:43:31;;;;;;;10.77;3.67;;;;;;;;;;5049856;28;20033;-72
2023/04/01 10:46:00;;;;;;;10.55;3.33;;;;;;;;;;5052342;28;20378;-72
2023/04/01 10:48:36;;;;;;;9.15;2.28;;;;;;;;;;5052655;28;20013;-73
2023/04/01 10:51:06;;;;;;;9.15;2.53;;;;;;;;;;5052348;28;20404;-72
2023/04/01 10:53:46;;;;;;;8.57;2.27;;;;;;;;;;5052356;28;20025;-73
2023/04/01 10:56:15;;;;;;;9.50;2.20;;;;;;;;;;5052396;28;20039;-73
2023/04/01 10:59:00;;;;;;;9.93;2.88;;;;;;;;;;5052111;28;20029;-73
2023/04/01 11:01:45;;;;;;;11.40;2.58;;;;;;;;;;5052184;28;20025;-73
2023/04/01 11:04:17;;;;;;;6.55;2.03;;;;;;;;;;5052637;28;20051;-72
2023/04/01 11:06:55;;;;;;;11.18;2.65;;;;;;;;;;5052289;28;20032;-73
2023/04/01 11:09:23;;;;;;;7.28;2.55;;;;;;;;;;5051977;28;20037;-73
2023/04/01 11:11:52;;;;;;;10.48;3.15;;;;;;;;;;5052039;28;20024;-73
2023/04/01 11:14:37;;;;;;;12.43;3.10;;;;;;;;;;5052216;28;20017;-73
2023/04/01 11:17:23;;;;;;;9.18;2.80;;;;;;;;;;5051962;28;20043;-72
2023/04/01 11:20:08;;;;;;;10.85;2.75;;;;;;;;;;5051775;28;20025;-72
2023/04/01 11:22:52;;;;;;;13.63;3.28;;;;;;;;;;5051625;28;20031;-73
2023/04/01 11:25:42;;;;;;;15.23;2.85;;;;;;;;;;5052184;28;20033;-73
2023/04/01 11:28:23;;;;;;;8.85;2.33;;;;;;;;;;5048927;28;20531;-73
2023/04/01 11:30:51;;;;;;;9.30;2.90;;;;;;;;;;5051768;28;20045;-73
2023/04/01 11:33:32;;;;;;;7.82;2.60;;;;;;;;;;5051890;28;20036;-73
2023/04/01 11:36:06;;;;;;;8.40;2.10;;;;;;;;;;5051590;28;20037;-72
2023/04/01 11:38:51;;;;;;;11.90;2.38;;;;;;;;;;5051679;28;20044;-73
2023/04/01 11:41:18;;;;;;;13.18;2.75;;;;;;;;;;5051792;28;20047;-72
2023/04/01 11:44:03;;;;;;;15.07;3.00;;;;;;;;;;5051801;28;20021;-73
2023/04/01 11:46:44;;;;;;;15.45;3.35;;;;;;;;;;5051916;28;20025;-72
2023/04/01 11:49:13;;;;;;;6.65;1.98;;;;;;;;;;5051639;28;20021;-72
2023/04/01 11:51:42;;;;;;;13.32;2.92;;;;;;;;;;5051287;28;20031;-72
2023/04/01 11:54:18;;;;;;;12.38;2.50;;;;;;;;;;5051740;28;20428;-72
2023/04/01 11:56:52;;;;;;;10.07;2.58;;;;;;;;;;5051573;28;20048;-72
2023/04/01 11:59:30;;;;;;;10.68;3.03;;;;;;;;;;5051501;28;20028;-72
2023/04/01 12:02:09;;;;;;;9.35;2.97;;;;;;;;;;5051781;28;20027;-72
2023/04/01 12:04:44;;;;;;;6.22;1.90;;;;;;;;;;5051202;28;20029;-72
2023/04/01 12:07:30;;;;;;;10.70;2.28;;;;;;;;;;5051492;28;20029;-73
2023/04/01 12:10:32;;;;;;;9.50;1.90;;;;;;;;;;5051367;28;20026;-72
2023/04/01 12:13:16;;;;;;;8.35;2.00;;;;;;;;;;5029297;28;20037;-72
2023/04/01 12:15:42;;;;;;;6.80;1.48;;;;;;;;;;5029105;28;20514;-72
2023/04/01 12:18:18;;;;;;;7.40;1.70;;;;;;;;;;5029592;28;20029;-72
2023/04/01 12:20:54;;;;;;;9.07;1.88;;;;;;;;;;5029214;28;20051;-72
2023/04/01 12:23:26;;;;;;;6.07;1.85;;;;;;;;;;5032903;28;20033;-72
2023/04/01 12:25:52;;;;;;;14.90;4.35;;;;;;;;;;5032969;28;20510;-72
2023/04/01 12:28:20;;;;;;;10.02;2.63;;;;;;;;;;5032667;28;20102;-72
2023/04/01 12:31:09;;;;;;;6.95;2.08;;;;;;;;;;5032946;28;20053;-72
2023/04/01 12:33:54;;;;;;;11.35;2.03;;;;;;;;;;5032233;28;20042;-72
2023/04/01 12:36:38;;;;;;;11.25;2.38;;;;;;;;;;5032673;28;20559;-73
2023/04/01 12:39:23;;;;;;;8.88;2.20;;;;;;;;;;5032577;28;20029;-72
2023/04/01 12:42:08;;;;;;;11.52;3.03;;;;;;;;;;5032806;28;20076;-72
2023/04/01 12:44:49;;;;;;;12.70;3.20;;;;;;;;;;5032532;28;20048;-73
2023/04/01 12:47:16;;;;;;;12.85;3.65;;;;;;;;;;5038768;28;20040;-72
2023/04/01 12:49:45;;;;;;;6.57;2.40;;;;;;;;;;5054315;28;20021;-72
2023/04/01 12:52:13;;;;;;;8.82;2.40;;;;;;;;;;5053340;28;20065;-72
2023/04/01 12:54:58;;;;;;;12.88;3.72;;;;;;;;;;5054576;28;20031;-72
2023/04/01 12:57:30;;;;;;;12.15;3.00;;;;;;;;;;5054517;28;20071;-72
2023/04/01 13:00:12;;;;;;;9.40;2.45;;;;;;;;;;5054153;28;20055;-72
2023/04/01 13:02:46;;;;;;;8.10;2.47;;;;;;;;;;5054394;28;20025;-73
2023/04/01 13:05:51;;;;;;;16.25;3.15;;;;;;;;;;5054406;28;20033;-72
2023/04/01 13:08:31;;;;;;;7.45;2.60;;;;;;;;;;5032127;28;20025;-72
2023/04/01 13:11:03;;;;;;;10.77;3.20;;;;;;;;;;5015752;28;20033;-72
2023/04/01 13:13:38;;;;;;;13.07;2.30;;;;;;;;;;5032173;28;20037;-72
2023/04/01 13:16:10;;;;;;;13.35;2.25;;;;;;;;;;5015470;28;20044;-73
2023/04/01 13:18:37;;;;;;;13.05;2.60;;;;;;;;;;5031543;28;20079;-72
2023/04/01 13:21:06;;;;;;;11.00;2.50;;;;;;;;;;5031879;28;20528;-72
2023/04/01 13:23:38;;;;;;;8.43;2.22;;;;;;;;;;5031893;28;20040;-73
2023/04/01 13:26:04;;;;;;;10.57;2.20;;;;;;;;;;5015586;28;20040;-72
2023/04/01 13:28:34;;;;;;;11.02;2.70;;;;;;;;;;5031597;28;20036;-72
2023/04/01 13:31:10;;;;;;;11.07;2.33;;;;;;;;;;5031751;28;20068;-72
2023/04/01 13:33:36;;;;;;;8.80;2.40;;;;;;;;;;5030478;28;20033;-73
2023/04/01 13:36:14;;;;;;;8.57;2.25;;;;;;;;;;5031741;28;20041;-72
2023/04/01 13:39:02;;;;;;;11.65;2.22;;;;;;;;;;5039606;28;20032;-72
2023/04/01 13:41:41;;;;;;;10.35;2.35;;;;;;;;;;5053967;28;20025;-72
2023/04/01 13:44:11;;;;;;;5.95;1.88;;;;;;;;;;5053989;28;20031;-72
2023/04/01 13:46:56;;;;;;;6.88;1.63;;;;;;;;;;5053506;28;20385;-72
2023/04/01 13:49:42;;;;;;;7.05;1.80;;;;;;;;;;5085847;28;20433;-70
2023/04/01 13:52:09;;;;;;;6.05;1.63;;;;;;;;;;5031277;28;20044;-72
2023/04/01 13:54:44;;;;;;;5.07;1.80;;;;;;;;;;5031236;28;20045;-72
2023/04/01 13:57:23;;;;;;;5.60;1.30;;;;;;;;;;5031085;28;20049;-72
2023/04/01 13:59:58;;;;;;;2.78;1.30;;;;;;;;;;5031414;28;20025;-72
2023/04/01 14:02:39;;;;;;;5.57;1.20;;;;;;;;;;5030449;28;20025;-72
2023/04/01 14:05:26;;;;;;;6.57;1.75;;;;;;;;;;5031325;28;20033;-72
2023/04/01 14:07:52;;;;;;;4.60;1.35;;;;;;;;;;5030835;28;20463;-72
2023/04/01 14:10:42;;;;;;;6.28;1.27;;;;;;;;;;5030975;28;20584;-72
2023/04/01 14:13:11;;;;;;;4.28;1.38;;;;;;;;;;5030915;28;20410;-72
2023/04/01 14:15:38;;;;;;;4.80;1.33;;;;;;;;;;5030550;28;20038;-72
2023/04/01 14:18:05;;;;;;;5.38;1.30;;;;;;;;;;5031004;28;20486;-72
2023/04/01 14:20:31;;;;;;;6.82;1.75;;;;;;;;;;5031194;28;20037;-72
2023/04/01 14:23:16;;;;;;;6.05;1.58;;;;;;;;;;5030658;28;20042;-72
2023/04/01 14:25:48;;;;;;;7.70;1.88;;;;;;;;;;5031012;28;20029;-72
2023/04/01 14:28:34;;;;;;;10.20;1.75;;;;;;;;;;5030843;28;20447;-73
2023/04/01 14:31:21;;;;;;;8.13;1.60;;;;;;;;;;5032411;28;20034;-72
2023/04/01 14:33:53;;;;;;;5.63;1.52;;;;;;;;;;5032818;28;20025;-72
2023/04/01 14:36:20;;;;;;;7.85;2.15;;;;;;;;;;5032741;28;20034;-72
2023/04/01 14:39:00;;;;;;;8.52;2.00;;;;;;;;;;5032757;28;20385;-72
2023/04/01 14:41:33;;;;;;;8.98;2.20;;;;;;;;;;5032791;28;20028;-72
2023/04/01 14:44:00;;;;;;;11.05;1.95;;;;;;;;;;5032077;28;20013;-72
2023/04/01 14:46:35;;;;;;;11.77;2.63;;;;;;;;;;5032538;28;20508;-72
2023/04/01 14:49:20;;;;;;;10.90;2.15;;;;;;;;;;5032308;28;20026;-72
2023/04/01 14:51:47;;;;;;;12.73;2.25;;;;;;;;;;5032580;28;20029;-72
2023/04/01 14:54:31;;;;;;;9.93;1.85;;;;;;;;;;5032490;28;20036;-72
2023/04/01 14:57:21;;;;;;;9.30;2.67;;;;;;;;;;5032265;28;20044;-72
2023/04/01 14:59:47;;;;;;;9.40;2.10;;;;;;;;;;5037796;28;20029;-72
2023/04/01 15:02:26;;;;;;;10.80;2.30;;;;;;;;;;5052232;28;20031;-72
2023/04/01 15:05:11;;;;;;;12.63;3.17;;;;;;;;;;5052184;28;20029;-72